Time;durP1;ratioP1;P1;durP2;ratioP2;P2;SDS_P1;SDS_P2;PMS_P1;PMS_P2;Temp;Humidity;BMP_temperature;BMP_pressure;BME280_temperature;BME280_humidity;BME280_pressure;Samples;Min_cycle;Max_cycle;Signal;HPM_P1;HPM_P2
2022/03/22 00:00:09;;;;;;;3.47;1.90;;;;;;;18.72;38.61;102450.50;5086678;28;20105;-51
2022/03/22 00:02:35;;;;;;;2.70;1.92;;;;;;;18.72;38.62;102450.50;5065831;28;20028;-47
2022/03/22 00:05:01;;;;;;;2.80;1.67;;;;;;;18.70;38.70;102449.81;5080984;28;20031;-51
2022/03/22 00:07:27;;;;;;;2.15;1.95;;;;;;;18.70;38.70;102456.91;5086865;28;20031;-47
2022/03/22 00:09:53;;;;;;;2.42;1.60;;;;;;;18.70;38.65;102456.91;5058394;28;20131;-49
2022/03/22 00:12:19;;;;;;;1.73;1.58;;;;;;;18.70;38.56;102456.91;5084237;28;20479;-45
2022/03/22 00:14:44;;;;;;;1.80;1.63;;;;;;;18.69;38.50;102453.44;5085531;28;20116;-45
2022/03/22 00:17:10;;;;;;;2.58;1.55;;;;;;;18.69;38.46;102456.09;5087198;28;20028;-46
2022/03/22 00:19:36;;;;;;;3.22;1.63;;;;;;;18.69;38.32;102456.09;5083943;28;20494;-43
2022/03/22 00:22:03;;;;;;;2.22;1.60;;;;;;;18.68;38.34;102454.44;5083953;28;20142;-48
2022/03/22 00:24:29;;;;;;;2.47;1.45;;;;;;;18.69;38.21;102450.81;5085808;28;20036;-44
2022/03/22 00:26:56;;;;;;;1.92;1.23;;;;;;;18.68;38.18;102446.50;5085888;28;20051;-41
2022/03/22 00:29:21;;;;;;;2.65;1.60;;;;;;;18.69;38.17;102455.25;5084227;28;20071;-51
2022/03/22 00:31:47;;;;;;;2.83;1.55;;;;;;;18.69;38.20;102457.91;5084596;28;20024;-46
2022/03/22 00:34:13;;;;;;;2.63;1.48;;;;;;;18.66;38.25;102451.09;5084940;28;20028;-43
2022/03/22 00:36:43;;;;;;;2.63;1.75;;;;;;;18.67;38.37;102442.22;5084963;28;20036;-45
2022/03/22 00:39:09;;;;;;;3.17;1.90;;;;;;;18.65;38.39;102438.06;5081780;28;20141;-46
2022/03/22 00:41:34;;;;;;;2.00;1.60;;;;;;;18.64;38.38;102429.31;5079273;28;20024;-48
2022/03/22 00:44:00;;;;;;;3.63;1.75;;;;;;;18.63;38.31;102440.84;5088088;28;20028;-43
2022/03/22 00:46:25;;;;;;;4.18;2.08;;;;;;;18.62;38.44;102441.81;5084596;28;20034;-45
2022/03/22 00:48:51;;;;;;;2.10;1.50;;;;;;;18.62;38.40;102439.19;5090432;28;20369;-48
2022/03/22 00:51:16;;;;;;;2.17;1.30;;;;;;;18.62;38.42;102441.81;5081827;28;20031;-42
2022/03/22 00:53:42;;;;;;;2.67;1.95;;;;;;;18.60;38.41;102435.84;5088184;28;20562;-50
2022/03/22 00:56:08;;;;;;;2.22;1.38;;;;;;;18.61;38.46;102440.16;5087205;28;20035;-43
2022/03/22 00:58:34;;;;;;;2.45;1.70;;;;;;;18.61;38.53;102441.97;5086002;28;20024;-42
2022/03/22 01:01:00;;;;;;;2.88;1.38;;;;;;;18.60;38.53;102440.28;5090124;28;20039;-46
2022/03/22 01:03:28;;;;;;;1.80;1.25;;;;;;;18.57;38.43;102434.31;5089241;28;20032;-42
2022/03/22 01:05:54;;;;;;;2.50;1.10;;;;;;;18.58;38.32;102428.06;5084445;28;20043;-48
2022/03/22 01:08:19;;;;;;;2.53;1.65;;;;;;;18.57;38.45;102436.94;5088340;28;20053;-43
2022/03/22 01:10:52;;;;;;;2.35;1.48;;;;;;;18.58;38.46;102429.88;5090334;28;20491;-47
2022/03/22 01:13:27;;;;;;;2.38;1.42;;;;;;;18.54;38.56;102436.41;5086797;28;20120;-46
2022/03/22 01:15:53;;;;;;;3.08;1.65;;;;;;;18.56;38.35;102423.91;5090221;28;20028;-46
2022/03/22 01:18:20;;;;;;;1.92;1.48;;;;;;;18.55;38.38;102432.81;5087530;28;20078;-46
2022/03/22 01:20:49;;;;;;;2.67;1.98;;;;;;;18.55;38.28;102430.16;5064111;28;20031;-45
2022/03/22 01:23:16;;;;;;;1.80;1.17;;;;;;;18.54;38.22;102428.50;5076267;28;20036;-48
2022/03/22 01:25:43;;;;;;;2.13;1.63;;;;;;;18.54;38.22;102415.31;5086036;28;20023;-41
2022/03/22 01:28:11;;;;;;;2.63;1.27;;;;;;;18.54;38.24;102426.69;5069088;28;20066;-45
2022/03/22 01:30:37;;;;;;;2.03;1.38;;;;;;;18.55;38.13;102422.25;5063389;28;20048;-42
2022/03/22 01:33:04;;;;;;;3.40;1.30;;;;;;;18.56;38.16;102429.19;5088867;28;20031;-44
2022/03/22 01:35:30;;;;;;;2.72;1.55;;;;;;;18.57;37.99;102428.19;5086345;28;20089;-43
2022/03/22 01:37:57;;;;;;;3.00;1.70;;;;;;;18.57;38.06;102420.28;5087106;28;20032;-46
2022/03/22 01:40:25;;;;;;;1.58;1.23;;;;;;;18.58;37.94;102427.22;5076692;28;20633;-46
2022/03/22 01:42:53;;;;;;;2.78;1.58;;;;;;;18.57;37.91;102425.56;5085968;28;20480;-47
2022/03/22 01:45:18;;;;;;;3.83;1.20;;;;;;;18.58;37.83;102424.59;5082195;28;20112;-43
2022/03/22 01:47:47;;;;;;;2.53;1.15;;;;;;;18.59;37.90;102428.88;5072273;28;20110;-44
2022/03/22 01:50:19;;;;;;;2.17;1.75;;;;;;;18.58;37.94;102427.22;5078221;28;20016;-42
2022/03/22 01:52:46;;;;;;;2.67;1.08;;;;;;;18.60;37.91;102432.34;5084129;28;20032;-47
2022/03/22 01:55:15;;;;;;;1.60;1.30;;;;;;;18.59;37.90;102434.16;5089334;28;20578;-45
2022/03/22 01:57:41;;;;;;;3.22;1.42;;;;;;;18.60;38.05;102427.06;5075199;28;20028;-43
2022/03/22 02:00:10;;;;;;;2.60;1.42;;;;;;;18.59;37.92;102420.97;5084986;28;20024;-43
2022/03/22 02:08:10;;;;;;;2.90;1.70;;;;;;;18.56;38.08;102423.91;5083988;28;20043;-42
2022/03/22 02:13:12;;;;;;;2.30;1.58;;;;;;;18.53;38.04;102425.03;5074852;22;20105;-45
2022/03/22 02:15:38;;;;;;;4.00;1.80;;;;;;;18.53;38.16;102424.19;5028537;28;20036;-41
2022/03/22 02:18:04;;;;;;;2.40;1.50;;;;;;;18.52;38.25;102418.09;5028256;28;20033;-45
2022/03/22 02:20:31;;;;;;;2.50;1.63;;;;;;;18.52;38.31;102427.81;5027430;28;20021;-46
2022/03/22 02:23:13;;;;;;;2.03;1.65;;;;;;;18.51;38.22;102426.16;5028379;28;20493;-46
2022/03/22 02:25:38;;;;;;;2.05;1.55;;;;;;;18.50;38.15;102432.41;5028746;28;20029;-41
2022/03/22 02:28:05;;;;;;;2.33;1.20;;;;;;;18.49;38.17;102433.41;5028247;28;20033;-45
2022/03/22 02:30:31;;;;;;;3.17;1.63;;;;;;;18.49;38.27;102422.84;5026933;28;20037;-43
2022/03/22 02:33:00;;;;;;;1.77;1.30;;;;;;;18.49;38.31;102425.47;5026709;28;20045;-42
2022/03/22 02:35:28;;;;;;;1.88;1.30;;;;;;;18.48;38.20;102432.56;5026790;28;20120;-42
2022/03/22 02:37:54;;;;;;;1.90;1.45;;;;;;;18.48;38.12;102426.44;5028155;28;20040;-46
2022/03/22 02:40:20;;;;;;;1.75;1.10;;;;;;;18.48;38.08;102422.00;5026801;28;20022;-47
2022/03/22 02:42:53;;;;;;;5.50;1.85;;;;;;;18.47;37.97;102428.25;5026585;28;20033;-46
2022/03/22 02:45:20;;;;;;;3.47;1.50;;;;;;;18.47;37.96;102444.09;5028070;28;20147;-41
2022/03/22 02:47:46;;;;;;;2.33;1.08;;;;;;;18.48;37.96;102431.72;5028287;28;20373;-44
2022/03/22 02:50:12;;;;;;;2.58;1.30;;;;;;;18.48;37.92;102426.44;5028277;28;20033;-44
2022/03/22 02:52:38;;;;;;;1.70;1.20;;;;;;;18.47;37.83;102427.44;5027839;28;20177;-46
2022/03/22 02:55:06;;;;;;;2.53;1.63;;;;;;;18.47;37.88;102433.53;5028561;28;20033;-46
2022/03/22 02:57:33;;;;;;;1.90;1.20;;;;;;;18.46;37.96;102431.03;5027629;28;20555;-49
2022/03/22 02:59:58;;;;;;;2.38;1.63;;;;;;;18.45;37.91;102432.03;5027762;28;20029;-43
2022/03/22 03:02:24;;;;;;;3.88;1.45;;;;;;;18.44;37.93;102435.66;5027445;28;20095;-41
2022/03/22 03:04:49;;;;;;;2.15;1.58;;;;;;;18.44;38.02;102431.19;5028097;28;20025;-48
2022/03/22 03:07:15;;;;;;;2.45;1.10;;;;;;;18.44;38.14;102430.38;5027569;28;20496;-46
2022/03/22 03:09:40;;;;;;;2.40;1.67;;;;;;;18.44;38.09;102441.75;5027634;28;20036;-42
2022/03/22 03:12:06;;;;;;;2.42;1.60;;;;;;;18.42;37.96;102427.06;5027497;28;20033;-46
2022/03/22 03:14:41;;;;;;;2.20;1.58;;;;;;;18.42;38.18;102427.91;5027404;28;20025;-43
2022/03/22 03:17:10;;;;;;;2.63;1.23;;;;;;;18.40;38.22;102429.03;5027462;28;20033;-46
2022/03/22 03:19:36;;;;;;;1.75;1.10;;;;;;;18.40;38.45;102424.59;5027691;28;20274;-48
2022/03/22 03:22:03;;;;;;;1.92;1.30;;;;;;;18.40;38.10;102421.94;5027409;28;20374;-49
2022/03/22 03:24:30;;;;;;;3.20;1.30;;;;;;;18.39;38.19;102414.19;5027321;28;20035;-46
2022/03/22 03:26:55;;;;;;;3.00;1.70;;;;;;;18.38;37.95;102431.81;5027052;28;20072;-47
2022/03/22 03:29:21;;;;;;;2.72;1.15;;;;;;;18.38;37.81;102425.72;5027273;28;20037;-44
2022/03/22 03:31:47;;;;;;;2.53;1.58;;;;;;;18.36;37.79;102425.84;5027397;28;20031;-45
2022/03/22 03:34:12;;;;;;;2.53;1.55;;;;;;;18.36;37.88;102423.22;5025719;28;20029;-43
2022/03/22 03:36:38;;;;;;;1.92;1.15;;;;;;;18.36;37.91;102427.66;5027222;28;20026;-49
2022/03/22 03:39:04;;;;;;;2.25;1.50;;;;;;;18.35;37.78;102415.44;5027735;28;20037;-47
2022/03/22 03:47:05;;;;;;;3.03;2.05;;;;;;;18.31;37.87;102422.81;5027637;28;20450;-46
2022/03/22 03:49:34;;;;;;;2.63;1.13;;;;;;;18.32;37.90;102421.03;5027295;28;20072;-44
2022/03/22 03:52:00;;;;;;;2.33;1.30;;;;;;;18.33;37.97;102417.41;5026883;28;20028;-41
2022/03/22 03:54:26;;;;;;;2.70;1.60;;;;;;;18.33;37.84;102420.03;5027140;28;20120;-43
2022/03/22 03:56:51;;;;;;;1.65;1.27;;;;;;;18.33;37.85;102415.59;5026840;28;20029;-45
2022/03/22 03:59:17;;;;;;;1.67;1.10;;;;;;;18.33;37.83;102410.31;5027081;28;20031;-48
2022/03/22 04:01:44;;;;;;;2.53;1.58;;;;;;;18.34;37.78;102406.69;5025498;28;20033;-48
2022/03/22 04:04:10;;;;;;;2.30;1.50;;;;;;;18.35;37.76;102410.16;5026834;28;20095;-43
2022/03/22 04:06:35;;;;;;;1.80;1.25;;;;;;;18.37;37.76;102408.22;5026876;28;20097;-41
2022/03/22 04:09:01;;;;;;;2.90;1.38;;;;;;;18.36;37.64;102402.09;5026662;28;20483;-46
2022/03/22 04:11:27;;;;;;;1.75;1.20;;;;;;;18.37;37.69;102411.69;5026808;28;20296;-46
2022/03/22 04:13:52;;;;;;;1.85;0.93;;;;;;;18.37;37.71;102413.50;5028323;28;20115;-45
2022/03/22 04:16:18;;;;;;;3.28;1.30;;;;;;;18.38;37.74;102412.50;5033546;28;20098;-45
2022/03/22 04:18:43;;;;;;;1.70;1.23;;;;;;;18.37;37.67;102416.13;5033432;28;20464;-44
2022/03/22 04:21:09;;;;;;;3.40;2.05;;;;;;;18.37;37.75;102403.75;5033154;28;20696;-47
2022/03/22 04:23:34;;;;;;;2.15;1.02;;;;;;;18.37;37.51;102416.97;5033433;28;20055;-42
2022/03/22 04:26:00;;;;;;;2.03;1.25;;;;;;;18.38;37.68;102415.16;5033250;28;20071;-50
2022/03/22 04:33:54;;;;;;;2.75;1.40;;;;;;;18.35;37.70;102415.44;5033397;28;20088;-45
2022/03/22 04:36:19;;;;;;;3.60;1.60;;;;;;;18.36;37.59;102422.38;5033091;28;20034;-43
2022/03/22 04:38:45;;;;;;;2.17;1.50;;;;;;;18.34;37.79;102416.44;5033208;28;20503;-46
2022/03/22 04:41:11;;;;;;;1.98;1.30;;;;;;;18.33;37.70;102418.22;5033149;28;20033;-44
2022/03/22 04:43:37;;;;;;;2.65;1.27;;;;;;;18.31;37.82;102414.91;5033447;28;20028;-41
2022/03/22 04:46:02;;;;;;;4.35;1.05;;;;;;;18.32;37.80;102423.66;5032940;28;20030;-48
2022/03/22 04:48:29;;;;;;;1.60;1.20;;;;;;;18.30;37.79;102420.34;5033064;28;20026;-46
2022/03/22 04:56:43;;;;;;;2.45;1.63;;;;;;;18.29;37.87;102424.78;5031457;28;20025;-42
2022/03/22 04:56:45;;;;;;;2.28;1.15;;;;;;;18.25;37.78;102436.59;5033212;28;20047;-47
2022/03/22 04:59:11;;;;;;;1.95;1.40;;;;;;;18.24;37.67;102438.41;5033150;28;20033;-45
2022/03/22 05:01:37;;;;;;;6.30;1.35;;;;;;;18.25;37.92;102428.69;5032937;28;20040;-45
2022/03/22 05:04:02;;;;;;;3.40;1.27;;;;;;;18.24;37.51;102425.22;5014967;28;20124;-47
2022/03/22 05:06:28;;;;;;;2.35;1.77;;;;;;;18.26;37.55;102427.72;5033002;28;20041;-45
2022/03/22 05:08:54;;;;;;;1.67;1.35;;;;;;;18.27;37.55;102436.47;5032694;28;20029;-46
2022/03/22 05:11:23;;;;;;;3.80;1.80;;;;;;;18.26;37.57;102445.34;5032760;28;20116;-47
2022/03/22 05:13:49;;;;;;;1.60;1.50;;;;;;;18.26;37.52;102434.78;5032625;28;20049;-46
2022/03/22 05:16:15;;;;;;;2.10;1.50;;;;;;;18.26;37.55;102438.25;5033428;28;20059;-46
2022/03/22 05:18:41;;;;;;;2.35;1.48;;;;;;;18.25;37.47;102436.59;5033074;28;20033;-44
2022/03/22 05:21:07;;;;;;;3.00;1.30;;;;;;;18.26;37.52;102445.34;5031425;28;20531;-50
2022/03/22 05:23:36;;;;;;;2.03;1.17;;;;;;;18.24;37.67;102450.78;5032664;28;20175;-44
2022/03/22 05:26:06;;;;;;;3.72;1.42;;;;;;;18.24;37.65;102450.78;5030976;28;20056;-42
2022/03/22 05:28:33;;;;;;;2.95;1.35;;;;;;;18.23;37.53;102449.94;5029859;28;20381;-47
2022/03/22 05:30:58;;;;;;;1.95;1.50;;;;;;;18.22;37.59;102448.28;5028015;28;20472;-45
2022/03/22 05:33:24;;;;;;;2.22;1.15;;;;;;;18.23;37.49;102451.75;5029437;28;20033;-46
2022/03/22 05:35:49;;;;;;;2.70;1.38;;;;;;;18.21;37.47;102451.91;5027818;28;20095;-49
2022/03/22 05:38:15;;;;;;;2.03;1.40;;;;;;;18.20;37.48;102458.16;5028248;28;20044;-45
2022/03/22 05:40:41;;;;;;;2.95;1.45;;;;;;;18.19;37.66;102447.75;5029763;28;20052;-46
2022/03/22 05:43:07;;;;;;;2.38;1.77;;;;;;;18.18;37.59;102460.09;5026990;28;20338;-46
2022/03/22 05:45:33;;;;;;;2.40;1.23;;;;;;;18.19;37.55;102458.28;5029510;28;20511;-48
2022/03/22 05:48:00;;;;;;;2.20;1.48;;;;;;;18.18;37.60;102462.75;5027991;28;20037;-45
2022/03/22 05:50:29;;;;;;;2.28;1.13;;;;;;;18.17;37.80;102461.06;5024867;28;20285;-41
2022/03/22 05:52:55;;;;;;;4.50;1.67;;;;;;;18.17;37.91;102457.59;5029056;28;20036;-42
2022/03/22 05:55:20;;;;;;;3.45;1.50;;;;;;;18.16;38.03;102454.13;5027874;28;20754;-41
2022/03/22 05:57:46;;;;;;;3.72;1.65;;;;;;;18.17;37.88;102458.44;5027757;28;20063;-41
2022/03/22 06:00:13;;;;;;;1.90;1.30;;;;;;;18.16;37.94;102451.50;5027707;28;20037;-44
2022/03/22 06:02:40;;;;;;;4.05;1.50;;;;;;;18.16;37.80;102448.88;5026024;28;20392;-42
2022/03/22 06:05:14;;;;;;;2.45;1.55;;;;;;;18.15;37.49;102447.19;5028017;28;20582;-40
2022/03/22 06:07:41;;;;;;;2.97;1.67;;;;;;;18.15;37.62;102449.00;5028942;28;20033;-44
2022/03/22 06:10:09;;;;;;;3.60;1.55;;;;;;;18.15;37.64;102456.91;5028143;28;20049;-42
2022/03/22 06:12:42;;;;;;;2.40;1.55;;;;;;;18.13;37.70;102449.16;5024109;28;20145;-45
2022/03/22 06:15:16;;;;;;;3.17;1.70;;;;;;;18.12;37.66;102450.13;5041593;28;20451;-42
2022/03/22 06:17:52;;;;;;;3.67;1.60;;;;;;;18.12;37.65;102447.50;5028787;28;20493;-47
2022/03/22 06:20:20;;;;;;;2.30;1.40;;;;;;;18.14;37.57;102448.19;5027693;28;20029;-40
2022/03/22 06:22:46;;;;;;;3.38;1.85;;;;;;;18.14;37.64;102444.72;5028840;28;20476;-41
2022/03/22 06:25:13;;;;;;;2.60;1.52;;;;;;;18.14;37.65;102450.81;5027350;28;20492;-41
2022/03/22 06:27:41;;;;;;;2.67;1.50;;;;;;;18.14;37.71;102445.53;5027380;28;20041;-41
2022/03/22 06:30:09;;;;;;;2.22;1.52;;;;;;;18.15;37.64;102449.00;5042425;28;20029;-48
2022/03/22 06:32:50;;;;;;;3.13;1.55;;;;;;;18.13;37.62;102454.44;5027490;28;20124;-42
2022/03/22 06:35:18;;;;;;;3.30;1.33;;;;;;;18.16;37.73;102456.78;5027502;28;20033;-39
2022/03/22 06:37:45;;;;;;;1.67;1.00;;;;;;;18.16;37.58;102453.31;5028125;28;20045;-47
2022/03/22 06:40:12;;;;;;;3.58;1.65;;;;;;;18.17;37.65;102455.81;5027533;28;20029;-48
2022/03/22 06:42:38;;;;;;;3.60;1.80;;;;;;;18.17;37.38;102461.06;5021428;28;20531;-39
2022/03/22 06:45:05;;;;;;;2.30;1.60;;;;;;;18.18;37.71;102456.63;5026899;28;20029;-44
2022/03/22 06:47:32;;;;;;;3.83;1.60;;;;;;;18.17;37.57;102461.06;5027285;28;20128;-42
2022/03/22 06:49:58;;;;;;;2.63;1.52;;;;;;;18.18;37.54;102462.75;5028302;28;20041;-40
2022/03/22 06:52:23;;;;;;;2.17;1.40;;;;;;;18.18;37.52;102460.09;5025702;28;20120;-47
2022/03/22 06:54:49;;;;;;;2.55;1.45;;;;;;;18.18;37.58;102468.00;5024108;28;20900;-45
2022/03/22 06:57:15;;;;;;;2.90;1.50;;;;;;;18.18;37.56;102472.47;5027015;28;20028;-47
2022/03/22 06:59:41;;;;;;;2.13;1.55;;;;;;;18.18;37.63;102462.75;5023850;28;20044;-41
2022/03/22 07:02:07;;;;;;;2.05;1.30;;;;;;;18.19;37.51;102468.84;5025611;28;20026;-44
2022/03/22 07:04:33;;;;;;;2.58;1.40;;;;;;;18.18;37.48;102468.00;5028266;28;20272;-47
2022/03/22 07:06:58;;;;;;;1.48;1.10;;;;;;;18.16;37.57;102477.88;5028061;28;20566;-47
2022/03/22 07:09:24;;;;;;;2.33;1.38;;;;;;;18.16;37.71;102469.97;5020405;28;20150;-45
2022/03/22 07:11:50;;;;;;;3.10;1.42;;;;;;;18.16;37.73;102469.13;5038838;28;20362;-43
2022/03/22 07:14:20;;;;;;;4.95;1.75;;;;;;;18.16;37.76;102480.53;5024310;28;20031;-43
2022/03/22 07:16:47;;;;;;;5.45;1.75;;;;;;;18.21;38.51;102477.44;5023086;28;20037;-50
2022/03/22 07:19:14;;;;;;;4.00;2.35;;;;;;;18.31;39.76;102477.41;5025176;28;20041;-45
2022/03/22 07:21:40;;;;;;;6.43;2.42;;;;;;;18.39;39.58;102478.34;5017329;28;20409;-46
2022/03/22 07:24:06;;;;;;;6.93;2.97;;;;;;;18.47;39.93;102474.94;5025151;28;20339;-41
2022/03/22 07:26:32;;;;;;;7.75;3.03;;;;;;;18.51;39.48;102486.88;5020939;28;20288;-39
2022/03/22 07:28:57;;;;;;;4.20;2.67;;;;;;;18.53;39.20;102488.38;5019693;28;20301;-51
2022/03/22 07:31:23;;;;;;;4.88;2.40;;;;;;;18.54;39.06;102497.13;5028406;28;20536;-43
2022/03/22 07:33:48;;;;;;;9.85;2.60;;;;;;;18.53;39.19;102493.66;5020622;28;20117;-45
2022/03/22 07:36:13;;;;;;;4.53;2.30;;;;;;;18.55;39.21;102496.97;5026538;28;20033;-54
2022/03/22 07:38:39;;;;;;;6.90;2.13;;;;;;;18.59;39.07;102500.16;5023732;28;20582;-48
2022/03/22 07:41:04;;;;;;;4.15;1.92;;;;;;;18.63;39.15;102501.56;5025684;28;20044;-47
2022/03/22 07:43:30;;;;;;;2.80;1.80;;;;;;;18.69;38.89;102498.34;5020421;28;20026;-51
2022/03/22 07:45:56;;;;;;;3.42;1.65;;;;;;;18.76;38.85;102509.13;5026320;28;20053;-45
2022/03/22 07:48:21;;;;;;;8.57;1.85;;;;;;;18.78;38.62;102502.72;5020987;28;20124;-44
2022/03/22 07:53:31;;;;;;;11.52;2.03;;;;;;;18.88;38.77;102498.22;5016673;28;20036;-55
2022/03/22 07:55:56;;;;;;;7.55;1.90;;;;;;;18.96;38.87;102499.25;5022450;28;20041;-47
2022/03/22 07:58:22;;;;;;;4.80;1.60;;;;;;;19.00;39.27;102495.31;5019699;28;20369;-48
2022/03/22 08:00:47;;;;;;;3.78;1.77;;;;;;;19.02;39.34;102496.00;5018329;28;20037;-50
2022/03/22 08:03:15;;;;;;;8.95;2.38;;;;;;;19.04;39.34;102500.16;5018928;28;20144;-49
2022/03/22 08:05:42;;;;;;;10.48;1.98;;;;;;;19.06;39.38;102503.47;5024205;28;20481;-42
2022/03/22 08:08:07;;;;;;;10.50;2.13;;;;;;;19.08;39.24;102498.06;5042353;28;20109;-43
2022/03/22 08:10:33;;;;;;;7.85;2.17;;;;;;;19.10;39.08;102490.81;5025943;28;20120;-48
2022/03/22 08:13:00;;;;;;;7.53;2.20;;;;;;;19.10;39.27;102491.63;5024343;28;20049;-51
2022/03/22 08:15:26;;;;;;;6.78;1.45;;;;;;;19.11;39.56;102492.47;5040131;28;20102;-45
2022/03/22 08:17:51;;;;;;;5.22;1.25;;;;;;;19.11;39.99;102488.00;5024297;28;20044;-52
2022/03/22 08:20:18;;;;;;;7.82;2.30;;;;;;;19.11;39.97;102487.19;5019985;28;20050;-54
2022/03/22 08:22:51;;;;;;;7.50;2.55;;;;;;;19.09;39.98;102494.44;5018431;28;20032;-47
2022/03/22 08:25:35;;;;;;;11.90;2.53;;;;;;;19.07;40.19;102496.38;5023194;28;20037;-52
2022/03/22 08:28:03;;;;;;;5.78;2.67;;;;;;;19.06;39.37;102495.56;5021366;28;20041;-47
2022/03/22 08:30:30;;;;;;;7.88;2.83;;;;;;;19.04;38.97;102496.69;5027133;28;20040;-41
2022/03/22 08:32:59;;;;;;;5.57;2.30;;;;;;;19.02;38.55;102490.72;5022573;28;20396;-50
2022/03/22 08:35:26;;;;;;;3.22;2.13;;;;;;;19.00;38.30;102496.16;5026149;28;20033;-48
2022/03/22 08:37:53;;;;;;;11.13;2.58;;;;;;;19.00;38.24;102495.31;5025139;28;20029;-46
2022/03/22 08:40:19;;;;;;;9.80;2.55;;;;;;;19.00;38.26;102501.44;5025889;28;20033;-43
2022/03/22 08:42:46;;;;;;;6.82;2.58;;;;;;;19.01;38.28;102497.00;5024514;28;20099;-48
2022/03/22 08:45:14;;;;;;;3.00;1.90;;;;;;;19.01;38.27;102500.47;5026599;28;20044;-50
2022/03/22 08:47:41;;;;;;;7.78;2.17;;;;;;;19.01;38.19;102497.81;5022949;28;20041;-48
2022/03/22 08:50:11;;;;;;;7.65;2.45;;;;;;;19.00;38.28;102501.44;5024091;28;20523;-48
2022/03/22 08:52:38;;;;;;;5.60;2.13;;;;;;;19.01;38.21;102499.63;5020440;28;20056;-43
2022/03/22 08:55:07;;;;;;;6.60;2.10;;;;;;;19.00;38.23;102492.69;5019889;28;20037;-41
2022/03/22 08:57:34;;;;;;;7.20;2.53;;;;;;;18.99;38.24;102497.13;5023368;28;20033;-41
2022/03/22 08:59:59;;;;;;;4.97;2.28;;;;;;;18.97;38.24;102496.47;5026323;28;20041;-45
2022/03/22 09:02:25;;;;;;;5.70;2.47;;;;;;;18.95;38.19;102493.13;5025595;28;20025;-43
2022/03/22 09:07:34;;;;;;;3.97;2.22;;;;;;;18.96;38.17;102494.78;5022342;28;20045;-46
2022/03/22 09:10:00;;;;;;;8.70;2.45;;;;;;;18.96;38.21;102494.78;5024251;28;20029;-45
2022/03/22 09:12:26;;;;;;;5.07;2.17;;;;;;;18.96;38.27;102489.50;5028794;28;20076;-39
2022/03/22 09:14:53;;;;;;;3.90;2.10;;;;;;;18.98;38.45;102486.72;5022614;28;20465;-43
2022/03/22 09:17:20;;;;;;;6.35;2.33;;;;;;;18.97;38.64;102485.88;5026765;28;20390;-43
2022/03/22 09:19:45;;;;;;;5.15;2.20;;;;;;;18.99;38.87;102493.66;5025360;28;20523;-46
2022/03/22 09:22:11;;;;;;;2.85;1.67;;;;;;;18.97;38.97;102483.25;5021767;28;20026;-42
2022/03/22 09:24:37;;;;;;;3.40;2.05;;;;;;;18.98;39.11;102484.91;5029193;28;20040;-43
2022/03/22 09:27:03;;;;;;;3.65;1.73;;;;;;;18.98;39.27;102484.91;5031890;28;20039;-46
2022/03/22 09:29:29;;;;;;;7.25;2.17;;;;;;;18.97;39.26;102488.53;5022796;28;20463;-41
2022/03/22 09:31:55;;;;;;;3.63;1.42;;;;;;;18.97;39.35;102485.06;5028188;28;20033;-40
2022/03/22 09:34:22;;;;;;;5.50;2.25;;;;;;;18.97;39.56;102490.34;5027507;28;20037;-44
2022/03/22 09:36:47;;;;;;;5.97;1.83;;;;;;;18.95;39.50;102485.22;5029835;28;20508;-44
2022/03/22 09:39:13;;;;;;;5.28;1.98;;;;;;;18.95;39.35;102481.75;5029391;28;20057;-45
2022/03/22 09:41:40;;;;;;;8.13;2.42;;;;;;;18.94;39.40;102488.00;5029197;28;20393;-47
2022/03/22 09:44:05;;;;;;;4.13;2.03;;;;;;;18.93;39.41;102489.81;5027057;28;20025;-45
2022/03/22 09:46:32;;;;;;;7.57;1.95;;;;;;;18.93;39.34;102489.81;5028283;28;20033;-39
2022/03/22 09:48:59;;;;;;;3.80;2.33;;;;;;;18.93;39.43;102483.69;5027571;28;20040;-42
2022/03/22 09:54:10;;;;;;;5.82;2.35;;;;;;;18.92;39.38;102487.31;5028377;28;20595;-44
2022/03/22 09:56:36;;;;;;;2.47;1.58;;;;;;;18.92;39.45;102487.31;5043885;28;20343;-39
2022/03/22 09:59:04;;;;;;;3.13;1.70;;;;;;;18.93;39.59;102481.88;5027139;28;20026;-42
2022/03/22 10:01:31;;;;;;;3.58;2.10;;;;;;;18.93;39.62;102483.69;5028879;28;20095;-41
2022/03/22 10:04:04;;;;;;;2.47;1.58;;;;;;;18.93;39.63;102479.25;5028076;28;20040;-45
2022/03/22 10:06:30;;;;;;;3.28;2.00;;;;;;;18.93;39.72;102484.53;5029203;28;20034;-40
2022/03/22 10:08:56;;;;;;;3.53;1.67;;;;;;;18.92;39.65;102476.75;5027847;28;20033;-46
2022/03/22 10:11:33;;;;;;;3.70;1.92;;;;;;;18.90;39.78;102474.28;5028154;28;20029;-42
2022/03/22 10:13:58;;;;;;;3.85;1.73;;;;;;;18.88;39.71;102471.81;5027572;28;20057;-38
2022/03/22 10:16:24;;;;;;;6.00;2.10;;;;;;;18.87;39.78;102467.50;5028588;28;20466;-43
2022/03/22 10:18:49;;;;;;;4.15;1.63;;;;;;;18.86;39.84;102467.66;5027459;28;20037;-42
2022/03/22 10:21:15;;;;;;;5.70;1.70;;;;;;;18.85;39.75;102463.34;5042483;28;20036;-44
2022/03/22 10:23:49;;;;;;;3.00;1.30;;;;;;;18.83;39.85;102474.06;5042725;28;20069;-44
2022/03/22 10:26:15;;;;;;;4.57;1.90;;;;;;;18.84;39.94;102465.16;5028041;28;20108;-46
2022/03/22 10:28:55;;;;;;;3.63;1.70;;;;;;;18.80;39.93;102466.44;5026641;28;20552;-45
2022/03/22 10:31:35;;;;;;;3.17;1.48;;;;;;;18.79;40.03;102464.78;5028244;28;20032;-39
2022/03/22 10:34:01;;;;;;;2.22;1.42;;;;;;;18.79;39.93;102462.13;5027022;28;20048;-43
2022/03/22 10:36:27;;;;;;;3.47;1.40;;;;;;;18.79;39.83;102467.41;5019679;28;20385;-44
2022/03/22 10:38:57;;;;;;;2.67;1.50;;;;;;;18.76;39.96;102457.16;5028644;28;20215;-44
2022/03/22 10:41:25;;;;;;;2.00;1.73;;;;;;;18.77;39.68;102450.91;5027097;28;20029;-42
2022/03/22 10:44:01;;;;;;;2.55;1.30;;;;;;;18.75;39.72;102450.22;5027139;28;20033;-45
2022/03/22 10:46:28;;;;;;;3.38;2.17;;;;;;;18.75;39.63;102442.28;5027947;28;20506;-46
2022/03/22 10:49:01;;;;;;;4.53;1.52;;;;;;;18.73;39.70;102448.69;5027784;28;20067;-46
2022/03/22 10:51:35;;;;;;;3.78;1.67;;;;;;;18.72;39.81;102431.19;5026773;28;20041;-47
2022/03/22 10:54:01;;;;;;;3.15;1.75;;;;;;;18.73;39.78;102431.03;5028039;28;20033;-43
2022/03/22 10:56:27;;;;;;;1.90;1.17;;;;;;;18.73;39.74;102428.41;5027910;28;20025;-39
2022/03/22 10:58:55;;;;;;;3.63;1.83;;;;;;;18.71;39.88;102429.53;5026989;28;20037;-43
2022/03/22 11:01:23;;;;;;;3.45;1.80;;;;;;;18.72;39.82;102423.28;5027638;28;20064;-39
2022/03/22 11:03:50;;;;;;;1.85;1.25;;;;;;;18.72;39.97;102416.19;5026206;28;20124;-45
2022/03/22 11:06:17;;;;;;;2.08;1.60;;;;;;;18.72;39.88;102418.81;5027659;28;20483;-42
2022/03/22 11:08:43;;;;;;;1.80;1.33;;;;;;;18.70;39.91;102420.78;5027650;28;20033;-42
2022/03/22 11:11:09;;;;;;;3.90;1.77;;;;;;;18.71;39.91;102424.25;5026399;28;20192;-41
2022/03/22 11:13:36;;;;;;;3.50;1.80;;;;;;;18.70;39.85;102420.78;5026217;28;20136;-42
2022/03/22 11:16:02;;;;;;;2.60;1.65;;;;;;;18.70;39.42;102420.78;5026286;28;20036;-42
2022/03/22 11:18:29;;;;;;;4.15;2.20;;;;;;;18.70;39.19;102420.78;5027764;28;20525;-41
2022/03/22 11:21:03;;;;;;;1.67;1.10;;;;;;;18.67;38.82;102413.16;5027347;28;20403;-43
2022/03/22 11:23:31;;;;;;;5.45;2.33;;;;;;;18.65;38.80;102412.47;5025604;28;20353;-42
2022/03/22 11:26:07;;;;;;;2.05;1.33;;;;;;;18.63;38.76;102422.34;5041131;28;20026;-42
2022/03/22 11:28:34;;;;;;;3.15;1.33;;;;;;;18.63;38.93;102417.09;5007387;28;20049;-44
2022/03/22 11:31:01;;;;;;;2.60;1.73;;;;;;;18.63;38.78;102414.44;5026171;28;20582;-43
2022/03/22 11:36:18;;;;;;;2.47;1.52;;;;;;;18.62;38.84;102402.22;5026405;28;20547;-44
2022/03/22 11:38:55;;;;;;;2.58;1.75;;;;;;;18.62;38.81;102396.94;5020947;28;20028;-41
2022/03/22 11:44:24;;;;;;;1.70;1.30;;;;;;;18.65;38.58;102390.53;5026424;28;20045;-43
2022/03/22 11:47:11;;;;;;;3.55;1.88;;;;;;;18.63;38.63;102384.56;5025846;28;20032;-44
2022/03/22 11:49:58;;;;;;;3.13;1.38;;;;;;;18.64;38.74;102379.13;5007397;28;20068;-44
2022/03/22 11:52:33;;;;;;;3.92;1.92;;;;;;;18.66;38.71;102381.63;5013925;28;20496;-48
2022/03/22 11:55:00;;;;;;;2.88;1.98;;;;;;;18.65;38.77;102375.53;5019257;28;20401;-40
2022/03/22 11:57:27;;;;;;;3.25;1.83;;;;;;;18.66;38.83;102373.72;5036943;28;20492;-43
2022/03/22 11:59:54;;;;;;;2.97;1.98;;;;;;;18.66;38.92;102369.25;5023324;28;20036;-49